createdAt,value
2018-06-24T00:00:30.074Z,6.30
2018-06-24T00:02:59.465Z,6.27
2018-06-24T00:05:29.088Z,8.03
2018-06-24T00:07:58.410Z,6.78
2018-06-24T00:10:28.069Z,7.60
2018-06-24T00:12:57.836Z,6.80
2018-06-24T00:15:27.376Z,7.37
2018-06-24T00:17:56.767Z,7.42
2018-06-24T00:20:26.736Z,7.00
2018-06-24T00:22:56.371Z,6.47
2018-06-24T00:25:25.723Z,6.35
2018-06-24T00:27:55.636Z,5.95
2018-06-24T00:30:25.008Z,6.83
2018-06-24T00:32:54.266Z,6.60
2018-06-24T00:35:23.996Z,8.10
2018-06-24T00:37:53.524Z,6.37
2018-06-24T00:40:22.844Z,7.55
2018-06-24T00:42:52.748Z,6.78
2018-06-24T00:45:22.028Z,6.90
2018-06-24T00:47:51.481Z,6.70
2018-06-24T00:50:21.688Z,6.67
2018-06-24T00:52:51.034Z,6.75
2018-06-24T00:55:20.291Z,6.40
2018-06-24T00:57:49.675Z,6.45
2018-06-24T01:00:19.716Z,6.30
2018-06-24T01:02:49.049Z,6.42
2018-06-24T01:05:18.311Z,7.03
2018-06-24T01:07:47.974Z,7.78
2018-06-24T01:10:17.260Z,6.33
2018-06-24T01:12:46.521Z,6.05
2018-06-24T01:15:16.265Z,6.73
2018-06-24T01:17:45.534Z,6.72
2018-06-24T01:20:15.313Z,6.90
2018-06-24T01:22:45.007Z,6.65
2018-06-24T01:25:14.292Z,6.62
2018-06-24T01:27:43.552Z,6.60
2018-06-24T01:30:12.834Z,6.50
2018-06-24T01:32:42.726Z,7.10
2018-06-24T01:35:12.022Z,5.72
2018-06-24T01:37:44.420Z,5.50
2018-06-24T01:40:16.660Z,5.50
2018-06-24T01:42:46.230Z,5.50
2018-06-24T01:45:23.164Z,5.08
2018-06-24T01:47:55.923Z,5.42
2018-06-24T01:50:25.970Z,6.60
2018-06-24T01:52:55.431Z,5.80
2018-06-24T01:55:25.176Z,5.95
2018-06-24T01:57:54.520Z,5.90
2018-06-24T02:00:23.805Z,5.83
2018-06-24T02:02:53.160Z,5.83
2018-06-24T02:05:22.079Z,5.17
2018-06-24T02:07:51.678Z,5.30
2018-06-24T02:10:20.956Z,5.70
2018-06-24T02:12:50.231Z,5.70
2018-06-24T02:15:19.980Z,5.30
2018-06-24T02:17:49.257Z,5.57
2018-06-24T02:20:18.910Z,6.20
2018-06-24T02:22:48.243Z,5.25
2018-06-24T02:25:17.933Z,5.50
2018-06-24T02:27:47.687Z,5.25
2018-06-24T02:30:16.951Z,5.62
2018-06-24T02:32:46.535Z,5.70
2018-06-24T02:35:15.862Z,5.72
2018-06-24T02:37:45.110Z,6.20
2018-06-24T02:40:14.607Z,5.80
2018-06-24T02:42:43.893Z,5.42
2018-06-24T02:45:13.160Z,5.22
2018-06-24T02:47:42.629Z,6.35
2018-06-24T02:50:11.914Z,5.60
2018-06-24T02:52:41.162Z,4.83
2018-06-24T02:55:10.749Z,5.43
2018-06-24T02:57:40.092Z,5.80
2018-06-24T03:00:09.370Z,5.67
2018-06-24T03:02:38.926Z,5.35
2018-06-24T03:05:08.094Z,5.50
2018-06-24T03:07:37.555Z,5.97
2018-06-24T03:10:07.028Z,5.70
2018-06-24T03:12:36.249Z,5.80
2018-06-24T03:15:05.216Z,5.80
2018-06-24T03:17:34.770Z,5.40
2018-06-24T03:20:04.074Z,5.80
2018-06-24T03:22:33.345Z,5.72
2018-06-24T03:25:02.913Z,5.22
2018-06-24T03:27:32.206Z,5.50
2018-06-24T03:30:01.489Z,5.45
2018-06-24T03:32:31.162Z,5.37
2018-06-24T03:35:00.338Z,6.25
2018-06-24T03:37:29.602Z,6.00
2018-06-24T03:39:59.355Z,5.65
2018-06-24T03:42:28.590Z,5.70
2018-06-24T03:44:57.877Z,6.60
2018-06-24T03:47:27.342Z,6.08
2018-06-24T03:49:57.062Z,6.67
2018-06-24T03:52:26.429Z,6.05
2018-06-24T03:54:55.632Z,5.40
2018-06-24T03:57:25.194Z,6.25
2018-06-24T03:59:54.740Z,5.00
2018-06-24T04:02:24.307Z,5.70
2018-06-24T04:04:53.883Z,5.47
2018-06-24T04:07:23.181Z,4.97
2018-06-24T04:09:52.658Z,5.00
2018-06-24T04:12:22.169Z,5.72
2018-06-24T04:14:51.475Z,5.65
2018-06-24T04:17:20.774Z,5.70
2018-06-24T04:19:50.329Z,5.70
2018-06-24T04:22:19.742Z,5.92
2018-06-24T04:24:48.986Z,6.08
2018-06-24T04:27:18.502Z,5.28
2018-06-24T04:29:48.067Z,5.00
2018-06-24T04:32:17.377Z,5.75
2018-06-24T04:34:46.870Z,5.47
2018-06-24T04:37:16.157Z,5.70
2018-06-24T04:39:45.438Z,5.90
2018-06-24T04:42:15.058Z,5.80
2018-06-24T04:44:44.524Z,5.20
2018-06-24T04:47:14.594Z,6.10
2018-06-24T04:49:44.090Z,5.73
2018-06-24T04:52:13.223Z,5.67
2018-06-24T04:54:42.442Z,5.67
2018-06-24T04:57:12.557Z,5.30
2018-06-24T04:59:41.867Z,5.22
2018-06-24T05:02:11.138Z,6.27
2018-06-24T05:04:40.742Z,5.50
2018-06-24T05:07:09.901Z,6.47
2018-06-24T05:09:39.279Z,6.28
2018-06-24T05:12:09.135Z,6.20
2018-06-24T05:14:38.650Z,5.20
2018-06-24T05:17:07.899Z,5.40
2018-06-24T05:19:37.832Z,5.28
2018-06-24T05:22:07.417Z,5.08
2018-06-24T05:24:36.829Z,5.30
2018-06-24T05:27:06.650Z,4.70
2018-06-24T05:29:36.063Z,5.15
2018-06-24T05:32:05.381Z,5.20
2018-06-24T05:34:35.212Z,4.70
2018-06-24T05:37:04.554Z,5.22
2018-06-24T05:39:33.775Z,5.95
2018-06-24T05:42:03.471Z,5.90
2018-06-24T05:44:32.747Z,5.80
2018-06-24T05:47:02.183Z,5.75
2018-06-24T05:49:32.398Z,5.58
2018-06-24T05:52:01.628Z,5.10
2018-06-24T05:54:30.871Z,5.00
2018-06-24T05:57:00.434Z,5.37
2018-06-24T05:59:29.726Z,5.28
2018-06-24T06:01:59.340Z,4.75
2018-06-24T06:04:30.676Z,5.40
2018-06-24T06:07:00.369Z,5.45
2018-06-24T06:09:29.948Z,5.30
2018-06-24T06:11:59.705Z,5.05
2018-06-24T06:14:29.095Z,4.95
2018-06-24T06:16:58.606Z,5.20
2018-06-24T06:19:28.288Z,5.37
2018-06-24T06:22:05.121Z,5.35
2018-06-24T06:24:34.468Z,5.70
2018-06-24T06:27:03.773Z,4.70
2018-06-24T06:29:33.354Z,5.17
2018-06-24T06:32:02.683Z,4.90
2018-06-24T06:34:32.264Z,4.92
2018-06-24T06:37:01.529Z,5.33
2018-06-24T06:39:31.262Z,5.25
2018-06-24T06:42:00.589Z,4.95
2018-06-24T06:44:29.881Z,5.78
2018-06-24T06:46:59.535Z,4.90
2018-06-24T06:49:29.481Z,5.10
2018-06-24T06:51:58.689Z,4.57
2018-06-24T06:54:28.645Z,4.72
2018-06-24T06:56:58.256Z,4.90
2018-06-24T06:59:27.500Z,4.00
2018-06-24T07:01:57.278Z,4.40
2018-06-24T07:04:35.366Z,3.80
2018-06-24T07:07:04.876Z,4.00
2018-06-24T07:09:34.165Z,4.47
2018-06-24T07:12:03.845Z,3.95
2018-06-24T07:14:33.509Z,4.70
2018-06-24T07:17:02.835Z,3.50
2018-06-24T07:19:32.073Z,3.42
2018-06-24T07:22:01.710Z,3.70
2018-06-24T07:24:31.256Z,3.50
2018-06-24T07:27:00.633Z,3.27
2018-06-24T07:29:30.584Z,2.77
2018-06-24T07:32:00.456Z,3.80
2018-06-24T07:34:29.940Z,3.40
2018-06-24T07:36:59.542Z,3.30
2018-06-24T07:39:28.944Z,3.87
2018-06-24T07:41:58.474Z,3.17
2018-06-24T07:44:28.683Z,2.70
2018-06-24T07:46:57.977Z,3.75
2018-06-24T07:49:27.208Z,4.45
2018-06-24T07:51:57.112Z,3.20
2018-06-24T07:54:26.428Z,2.98
2018-06-24T07:56:55.761Z,2.90
2018-06-24T07:59:57.639Z,2.65
2018-06-24T08:02:27.042Z,3.80
2018-06-24T08:04:56.561Z,3.00
2018-06-24T08:07:25.689Z,3.40
2018-06-24T08:09:55.109Z,3.40
2018-06-24T08:12:25.213Z,2.97
2018-06-24T08:14:54.511Z,3.40
2018-06-24T08:17:23.818Z,2.80
2018-06-24T08:19:53.481Z,2.80
2018-06-24T08:22:22.783Z,2.77
2018-06-24T08:24:53.102Z,2.55
2018-06-24T08:27:23.056Z,2.80
2018-06-24T08:29:55.940Z,3.53
2018-06-24T08:32:27.219Z,2.62
2018-06-24T08:34:57.444Z,2.90
2018-06-24T08:37:27.035Z,3.00
2018-06-24T08:40:03.265Z,3.35
2018-06-24T08:42:32.619Z,3.37
2018-06-24T08:45:02.779Z,2.93
2018-06-24T08:47:50.549Z,2.85
2018-06-24T08:50:21.089Z,3.20
2018-06-24T08:52:52.949Z,3.80
2018-06-24T08:55:23.238Z,3.60
2018-06-24T08:57:52.291Z,4.28
2018-06-24T09:00:21.677Z,3.60
2018-06-24T09:02:51.494Z,3.70
2018-06-24T09:05:20.809Z,3.27
2018-06-24T09:07:55.066Z,3.80
2018-06-24T09:10:25.402Z,3.00
2018-06-24T09:12:54.934Z,3.20
2018-06-24T09:15:24.943Z,3.50
2018-06-24T09:17:54.979Z,2.77
2018-06-24T09:20:24.653Z,3.27
2018-06-24T09:22:54.165Z,3.40
2018-06-24T09:25:24.213Z,3.50
2018-06-24T09:27:55.799Z,3.35
2018-06-24T09:34:01.633Z,3.42
2018-06-24T09:36:31.344Z,3.20
2018-06-24T09:39:01.103Z,3.65
2018-06-24T09:41:32.228Z,3.90
2018-06-24T09:44:02.025Z,3.10
2018-06-24T09:46:31.683Z,3.45
2018-06-24T09:49:01.384Z,3.87
2018-06-24T09:51:33.291Z,4.17
2018-06-24T09:54:03.159Z,4.20
2018-06-24T09:56:33.164Z,3.90
2018-06-24T09:59:02.783Z,3.37
2018-06-24T10:01:32.305Z,3.80
2018-06-24T10:04:02.414Z,3.62
2018-06-24T10:06:31.801Z,3.87
2018-06-24T10:09:01.209Z,3.92
2018-06-24T10:11:30.654Z,3.30
2018-06-24T10:14:01.394Z,3.62
2018-06-24T10:16:30.910Z,3.80
2018-06-24T10:19:30.079Z,4.37
2018-06-24T10:21:59.395Z,4.17
2018-06-24T10:24:29.696Z,4.00
2018-06-24T10:26:59.231Z,4.53
2018-06-24T10:29:28.632Z,3.90
2018-06-24T10:31:58.462Z,3.70
2018-06-24T10:34:27.803Z,3.80
2018-06-24T10:36:57.482Z,4.80
2018-06-24T10:39:27.153Z,3.90
2018-06-24T10:41:56.682Z,3.75
2018-06-24T10:44:26.602Z,3.40
2018-06-24T10:46:56.225Z,3.70
2018-06-24T10:49:26.191Z,3.80
2018-06-24T10:51:55.435Z,3.60
2018-06-24T10:54:25.022Z,3.62
2018-06-24T10:56:54.562Z,3.70
2018-06-24T10:59:23.817Z,3.52
2018-06-24T11:01:53.331Z,3.87
2018-06-24T11:04:22.940Z,4.27
2018-06-24T11:06:52.212Z,3.52
2018-06-24T11:09:22.511Z,3.80
2018-06-24T11:11:51.856Z,3.75
2018-06-24T11:14:22.302Z,3.95
2018-06-24T11:16:52.049Z,4.17
2018-06-24T11:19:21.345Z,3.75
2018-06-24T11:21:58.330Z,3.70
2018-06-24T11:24:29.221Z,3.10
2018-06-24T11:26:58.857Z,3.62
2018-06-24T11:29:28.322Z,3.15
2018-06-24T11:31:59.378Z,3.80
2018-06-24T11:34:36.515Z,4.40
2018-06-24T11:37:07.538Z,3.00
2018-06-24T11:39:41.880Z,4.00
2018-06-24T11:42:16.617Z,3.42
2018-06-24T11:44:46.935Z,3.92
2018-06-24T11:47:18.058Z,3.00
2018-06-24T11:49:54.599Z,2.83
2018-06-24T11:52:27.036Z,3.20
2018-06-24T11:54:57.191Z,3.30
2018-06-24T11:57:26.558Z,3.77
2018-06-24T11:59:59.462Z,3.20
2018-06-24T12:02:37.022Z,3.60
2018-06-24T12:05:08.778Z,3.10
2018-06-24T12:07:39.550Z,3.12
2018-06-24T12:10:13.566Z,3.00
2018-06-24T12:12:46.844Z,3.17
2018-06-24T12:15:16.925Z,3.02
2018-06-24T12:17:50.194Z,3.50
2018-06-24T12:20:19.894Z,3.20
2018-06-24T12:23:02.463Z,2.98
2018-06-24T12:25:32.236Z,3.50
2018-06-24T12:28:01.570Z,3.77
2018-06-24T12:30:32.683Z,3.30
2018-06-24T12:33:03.574Z,3.10
2018-06-24T12:35:33.858Z,2.90
2018-06-24T12:38:07.650Z,3.50
2018-06-24T12:40:39.650Z,3.20
2018-06-24T12:46:48.389Z,3.37
2018-06-24T12:49:18.209Z,3.30
2018-06-24T12:51:47.489Z,3.33
2018-06-24T12:54:17.823Z,3.27
2018-06-24T12:56:47.794Z,3.30
2018-06-24T12:59:17.319Z,3.05
2018-06-24T13:01:46.762Z,2.83
2018-06-24T13:04:16.741Z,2.83
2018-06-24T13:06:46.347Z,3.25
2018-06-24T13:09:16.101Z,3.53
2018-06-24T13:11:47.333Z,2.90
2018-06-24T13:14:16.585Z,2.72
2018-06-24T13:16:46.333Z,3.12
2018-06-24T13:19:15.787Z,2.55
2018-06-24T13:21:51.495Z,2.50
2018-06-24T13:24:27.233Z,3.00
2018-06-24T13:26:56.574Z,2.85
2018-06-24T13:29:26.228Z,2.90
2018-06-24T13:31:56.440Z,2.83
2018-06-24T13:34:25.742Z,3.10
2018-06-24T13:39:18.254Z,2.62
2018-06-24T13:41:50.355Z,2.83
2018-06-24T13:44:19.908Z,2.60
2018-06-24T13:46:49.572Z,2.77
2018-06-24T13:49:19.331Z,2.50
2018-06-24T13:51:49.198Z,2.50
2018-06-24T13:54:18.909Z,2.85
2018-06-24T13:56:48.166Z,2.50
2018-06-24T13:59:17.890Z,3.10
2018-06-24T14:01:52.474Z,2.90
2018-06-24T14:04:23.003Z,2.20
2018-06-24T14:06:53.093Z,2.60
2018-06-24T14:09:22.643Z,3.00
2018-06-24T14:11:52.350Z,3.20
2018-06-24T14:14:21.893Z,2.40
2018-06-24T14:16:51.666Z,2.90
2018-06-24T14:19:39.976Z,3.00
2018-06-24T14:22:09.476Z,3.05
2018-06-24T14:24:38.760Z,2.30
2018-06-24T14:30:30.600Z,2.70
2018-06-24T14:33:00.658Z,2.97
2018-06-24T14:35:30.415Z,3.00
2018-06-24T14:38:02.901Z,3.10
2018-06-24T14:40:33.481Z,2.70
2018-06-24T14:43:05.809Z,2.50
2018-06-24T14:45:36.678Z,2.47
2018-06-24T14:48:06.061Z,2.60
2018-06-24T14:50:36.491Z,2.60
2018-06-24T14:53:06.405Z,2.70
2018-06-24T14:55:37.291Z,3.27
2018-06-24T14:58:08.140Z,2.35
2018-06-24T15:00:37.620Z,2.85
2018-06-24T15:03:07.190Z,3.20
2018-06-24T15:05:40.578Z,3.13
2018-06-24T15:08:11.546Z,3.30
2018-06-24T15:10:40.541Z,3.10
2018-06-24T15:13:09.626Z,3.62
2018-06-24T15:15:41.616Z,3.70
2018-06-24T15:18:12.261Z,3.30
2018-06-24T15:20:42.307Z,3.10
2018-06-24T15:23:17.419Z,3.47
2018-06-24T15:25:48.963Z,3.87
2018-06-24T15:28:44.517Z,3.60
2018-06-24T15:31:14.838Z,3.60
2018-06-24T15:33:44.122Z,3.70
2018-06-24T15:36:14.877Z,3.30
2018-06-24T15:38:44.634Z,3.80
2018-06-24T15:41:16.105Z,3.45
2018-06-24T15:43:45.408Z,3.40
2018-06-24T15:46:14.398Z,3.40
2018-06-24T15:48:45.937Z,3.00
2018-06-24T15:51:17.623Z,3.45
2018-06-24T15:53:47.994Z,4.20
2018-06-24T15:56:21.429Z,4.00
2018-06-24T15:58:51.294Z,3.10
2018-06-24T16:01:20.842Z,3.30
2018-06-24T16:03:56.957Z,3.62
2018-06-24T16:06:26.622Z,4.00
2018-06-24T16:08:56.873Z,3.62
2018-06-24T16:11:26.114Z,3.92
2018-06-24T16:13:57.466Z,4.00
2018-06-24T16:16:26.783Z,3.75
2018-06-24T16:18:56.364Z,4.10
2018-06-24T16:21:25.989Z,3.70
2018-06-24T16:23:55.664Z,3.62
2018-06-24T16:26:24.565Z,3.60
2018-06-24T16:28:54.794Z,3.87
2018-06-24T16:31:27.749Z,3.90
2018-06-24T16:33:57.015Z,4.12
2018-06-24T16:36:26.302Z,3.60
2018-06-24T16:38:56.243Z,3.87
2018-06-24T16:41:40.823Z,3.60
2018-06-24T16:44:10.207Z,3.90
2018-06-24T16:46:39.405Z,3.90
2018-06-24T16:49:09.684Z,3.83
2018-06-24T16:51:39.424Z,3.60
2018-06-24T16:54:08.868Z,3.85
2018-06-24T16:56:39.239Z,3.42
2018-06-24T16:59:08.538Z,3.70
2018-06-24T17:01:38.068Z,4.37
2018-06-24T17:04:13.980Z,4.20
2018-06-24T17:06:55.699Z,4.75
2018-06-24T17:09:25.684Z,4.35
2018-06-24T17:11:56.063Z,4.00
2018-06-24T17:14:26.031Z,4.35
2018-06-24T17:16:55.722Z,5.92
2018-06-24T17:19:28.768Z,5.60
2018-06-24T17:22:27.082Z,5.87
2018-06-24T17:24:56.833Z,5.10
2018-06-24T17:27:38.694Z,7.97
2018-06-24T17:30:42.477Z,4.53
2018-06-24T17:33:12.214Z,3.90
2018-06-24T17:35:42.934Z,4.60
2018-06-24T17:38:12.679Z,4.80
2018-06-24T17:40:42.244Z,5.53
2018-06-24T17:43:12.245Z,6.53
2018-06-24T17:46:29.466Z,6.22
2018-06-24T17:49:36.035Z,4.33
2018-06-24T17:52:05.323Z,4.70
2018-06-24T17:54:35.415Z,4.70
2018-06-24T17:57:04.986Z,5.33
2018-06-24T17:59:34.279Z,5.90
2018-06-24T18:02:04.444Z,5.55
2018-06-24T18:04:33.739Z,5.20
2018-06-24T18:07:03.094Z,4.53
2018-06-24T18:09:32.742Z,5.05
2018-06-24T18:12:03.820Z,5.73
2018-06-24T18:14:33.510Z,4.60
2018-06-24T18:17:03.407Z,4.80
2018-06-24T18:19:33.898Z,4.42
2018-06-24T18:22:03.129Z,4.35
2018-06-24T18:24:32.865Z,4.50
2018-06-24T18:27:02.178Z,4.90
2018-06-24T18:29:32.510Z,5.10
2018-06-24T18:32:02.522Z,5.12
2018-06-24T18:34:32.950Z,4.80
2018-06-24T18:37:02.593Z,6.37
2018-06-24T18:39:32.359Z,7.33
2018-06-24T18:42:01.612Z,5.10
2018-06-24T18:44:31.609Z,4.73
2018-06-24T18:47:01.318Z,4.40
2018-06-24T18:49:31.016Z,4.50
2018-06-24T18:52:01.369Z,5.03
2018-06-24T18:54:30.834Z,4.85
2018-06-24T18:57:04.203Z,6.43
2018-06-24T18:59:34.227Z,6.20
2018-06-24T19:02:03.493Z,4.97
2018-06-24T19:04:32.473Z,5.90
2018-06-24T19:07:02.148Z,5.10
2018-06-24T19:09:31.537Z,5.37
2018-06-24T19:12:00.722Z,4.35
2018-06-24T19:14:31.797Z,4.28
2018-06-24T19:17:01.641Z,4.10
2018-06-24T19:19:30.949Z,4.25
2018-06-24T19:22:00.474Z,4.60
2018-06-24T19:24:31.138Z,4.80
2018-06-24T19:27:00.291Z,4.30
2018-06-24T19:29:29.629Z,4.17
2018-06-24T19:32:00.277Z,4.33
2018-06-24T19:34:29.606Z,5.03
2018-06-24T19:36:58.875Z,4.13
2018-06-24T19:39:29.153Z,4.78
2018-06-24T19:41:58.626Z,4.50
2018-06-24T19:44:28.160Z,4.60
2018-06-24T19:46:58.609Z,4.30
2018-06-24T19:49:28.090Z,5.10
2018-06-24T19:51:57.359Z,4.50
2018-06-24T19:54:27.098Z,4.10
2018-06-24T19:57:10.246Z,4.28
2018-06-24T19:59:40.137Z,4.30
2018-06-24T20:02:09.468Z,4.47
2018-06-24T20:04:39.036Z,4.45
2018-06-24T20:07:08.596Z,4.73
2018-06-24T20:09:37.651Z,4.20
2018-06-24T20:12:07.024Z,4.30
2018-06-24T20:14:41.425Z,4.37
2018-06-24T20:17:12.117Z,4.40
2018-06-24T20:19:55.778Z,4.70
2018-06-24T20:22:26.010Z,4.75
2018-06-24T20:24:55.576Z,4.70
2018-06-24T20:27:25.205Z,4.55
2018-06-24T20:29:54.987Z,5.00
2018-06-24T20:32:24.327Z,4.67
2018-06-24T20:34:54.146Z,4.70
2018-06-24T20:37:24.563Z,5.17
2018-06-24T20:39:55.146Z,4.80
2018-06-24T20:42:24.906Z,5.00
2018-06-24T20:44:55.779Z,4.65
2018-06-24T20:47:26.911Z,4.60
2018-06-24T20:49:56.307Z,4.87
2018-06-24T20:52:26.028Z,4.70
2018-06-24T20:54:55.370Z,4.97
2018-06-24T20:57:25.061Z,5.08
2018-06-24T20:59:54.415Z,4.58
2018-06-24T21:02:23.989Z,5.30
2018-06-24T21:04:54.043Z,5.60
2018-06-24T21:07:23.377Z,4.80
2018-06-24T21:09:52.742Z,5.33
2018-06-24T21:12:22.850Z,5.42
2018-06-24T21:14:52.417Z,5.20
2018-06-24T21:17:21.941Z,5.40
2018-06-24T21:21:46.986Z,5.30
2018-06-24T21:24:25.525Z,5.78
2018-06-24T21:26:55.605Z,5.60
2018-06-24T21:29:25.254Z,4.95
2018-06-24T21:31:55.515Z,5.00
2018-06-24T21:34:25.430Z,4.70
2018-06-24T21:36:55.540Z,5.20
2018-06-24T21:39:25.570Z,5.40
2018-06-24T21:41:55.572Z,5.50
2018-06-24T21:44:25.734Z,5.70
2018-06-24T21:46:55.262Z,6.20
2018-06-24T21:49:24.900Z,6.50
2018-06-24T21:51:54.435Z,6.75
2018-06-24T21:54:23.743Z,6.57
2018-06-24T21:56:54.202Z,5.78
2018-06-24T21:59:23.808Z,6.40
2018-06-24T22:01:53.070Z,6.42
2018-06-24T22:04:22.609Z,6.22
2018-06-24T22:06:51.853Z,6.00
2018-06-24T22:09:21.202Z,6.28
2018-06-24T22:11:50.816Z,6.20
2018-06-24T22:14:20.025Z,6.58
2018-06-24T22:16:49.260Z,6.10
2018-06-24T22:19:18.773Z,6.37
2018-06-24T22:21:49.301Z,6.83
2018-06-24T22:24:18.718Z,7.30
2018-06-24T22:26:48.291Z,6.30
2018-06-24T22:29:17.578Z,6.53
2018-06-24T22:31:46.829Z,8.53
2018-06-24T22:34:16.570Z,6.20
2018-06-24T22:36:48.031Z,5.62
2018-06-24T22:39:17.846Z,6.62
2018-06-24T22:41:47.794Z,6.53
2018-06-24T22:44:17.187Z,6.20
2018-06-24T22:46:46.734Z,6.62
2018-06-24T22:49:16.789Z,6.40
2018-06-24T22:51:46.051Z,6.40
2018-06-24T22:54:15.281Z,6.15
2018-06-24T22:56:45.192Z,7.20
2018-06-24T22:59:25.594Z,7.50
2018-06-24T23:01:55.154Z,6.53
2018-06-24T23:04:24.546Z,7.30
2018-06-24T23:06:53.809Z,5.87
2018-06-24T23:09:23.371Z,5.70
2018-06-24T23:11:52.900Z,6.58
2018-06-24T23:14:22.187Z,5.60
2018-06-24T23:16:51.434Z,5.58
2018-06-24T23:19:21.198Z,5.72
2018-06-24T23:21:50.886Z,5.53
2018-06-24T23:24:20.214Z,4.95
2018-06-24T23:26:49.502Z,5.12
2018-06-24T23:29:19.336Z,5.50
2018-06-24T23:31:48.940Z,5.00
2018-06-24T23:34:19.435Z,5.47
2018-06-24T23:36:49.376Z,4.90
2018-06-24T23:39:19.438Z,6.20
2018-06-24T23:41:50.437Z,5.37
2018-06-24T23:44:22.787Z,5.50
2018-06-24T23:46:53.984Z,5.30
2018-06-24T23:49:25.117Z,5.55
2018-06-24T23:51:55.296Z,6.25
2018-06-24T23:54:25.207Z,5.42
2018-06-24T23:56:54.830Z,6.22
2018-06-24T23:59:25.524Z,6.20
